Time;durP1;ratioP1;P1;durP2;ratioP2;P2;SDS_P1;SDS_P2;PMS_P1;PMS_P2;Temp;Humidity;BMP_temperature;BMP_pressure;BME280_temperature;BME280_humidity;BME280_pressure;Samples;Min_cycle;Max_cycle;Signal;HPM_P1;HPM_P2
2022/05/04 00:00:48;;;;;;;3.50;2.70;;;14.60;70.60;;;13.42;73.56;95951.69;4965815;28;20126;-66
2022/05/04 00:03:14;;;;;;;3.85;2.63;;;14.60;71.40;;;13.40;74.72;95943.97;4949877;28;20030;-68
2022/05/04 00:05:40;;;;;;;3.05;2.70;;;14.50;71.60;;;13.33;74.55;95945.81;4953542;28;20046;-65
2022/05/04 00:08:06;;;;;;;4.82;2.75;;;14.40;72.10;;;13.33;74.77;95943.16;4945010;28;20148;-67
2022/05/04 00:10:32;;;;;;;6.38;2.75;;;14.40;72.10;;;13.31;74.82;95945.22;4945365;28;20032;-67
2022/05/04 00:12:58;;;;;;;3.63;2.92;;;14.50;72.30;;;13.34;74.98;95941.31;4933077;28;20090;-64
2022/05/04 00:15:25;;;;;;;4.65;3.00;;;14.50;72.30;;;13.29;75.82;95936.69;4948537;28;20214;-65
2022/05/04 00:17:51;;;;;;;4.18;3.13;;;14.40;72.70;;;13.23;75.55;95937.53;4955229;28;20031;-65
2022/05/04 00:20:17;;;;;;;4.65;3.42;;;14.20;73.10;;;13.15;75.92;95941.19;4929903;28;20098;-64
2022/05/04 00:22:43;;;;;;;3.75;3.20;;;14.20;73.60;;;13.11;76.59;95944.44;4949431;28;20055;-67
2022/05/04 00:25:10;;;;;;;4.57;3.50;;;14.20;73.90;;;13.05;76.36;95934.72;4963295;28;20047;-66
2022/05/04 00:27:37;;;;;;;5.07;3.35;;;14.10;74.30;;;13.03;76.79;95937.56;4965179;28;20110;-67
2022/05/04 00:30:06;;;;;;;3.58;3.17;;;14.20;74.30;;;13.01;77.27;95944.06;4965198;28;20518;-66
2022/05/04 00:32:32;;;;;;;4.65;4.00;;;14.20;74.40;;;13.02;77.26;95953.63;4958516;28;20076;-66
2022/05/04 00:34:58;;;;;;;4.82;3.30;;;14.20;74.50;;;12.99;77.86;95946.09;4912702;29;20043;-65
2022/05/04 00:37:24;;;;;;;5.10;3.45;;;14.20;74.40;;;12.96;77.81;95946.53;4897904;29;20636;-68
2022/05/04 00:39:50;;;;;;;4.65;3.53;;;14.10;74.80;;;12.97;78.14;95943.69;4929155;29;20147;-66
2022/05/04 00:42:19;;;;;;;3.92;3.53;;;14.10;74.80;;;12.97;78.11;95948.16;4913947;29;20046;-66
2022/05/04 00:44:47;;;;;;;4.82;3.70;;;14.10;74.60;;;12.97;77.74;95941.03;4932517;28;20089;-66
2022/05/04 00:47:13;;;;;;;6.88;4.18;;;14.20;74.60;;;13.00;77.83;95945.09;4964272;28;20031;-66
2022/05/04 00:49:39;;;;;;;8.40;5.35;;;14.20;74.50;;;13.00;78.34;95942.44;4964852;28;20038;-66
2022/05/04 00:52:06;;;;;;;5.22;3.85;;;14.20;74.50;;;13.01;78.29;95944.06;4963789;28;20031;-66
2022/05/04 00:54:35;;;;;;;7.00;3.65;;;14.20;74.60;;;12.98;78.68;95949.78;4930254;28;20102;-66
2022/05/04 00:57:02;;;;;;;4.45;3.58;;;14.10;74.70;;;12.89;78.38;95952.63;4964839;28;20046;-66
2022/05/04 00:59:28;;;;;;;4.57;3.53;;;14.00;75.10;;;12.85;78.36;95945.31;4948897;28;20034;-67
2022/05/04 01:01:54;;;;;;;5.38;3.90;;;14.00;75.20;;;12.81;79.01;95947.56;4965022;28;20042;-66
2022/05/04 01:04:20;;;;;;;4.85;3.83;;;13.90;75.40;;;12.79;78.88;95941.69;4963342;28;20035;-67
2022/05/04 01:06:46;;;;;;;6.82;3.97;;;14.00;75.40;;;12.79;78.55;95946.16;4963278;28;20027;-66
2022/05/04 01:09:12;;;;;;;6.07;3.60;;;14.00;75.30;;;12.78;78.71;95945.34;4956172;28;20183;-66
2022/05/04 01:11:38;;;;;;;4.15;3.13;;;14.00;75.50;;;12.81;79.34;95944.94;4948323;28;20414;-67
2022/05/04 01:14:10;;;;;;;3.80;3.20;;;14.00;75.40;;;12.83;80.00;95948.16;4964531;28;20453;-66
2022/05/04 01:16:38;;;;;;;6.25;3.90;;;14.00;75.30;;;12.83;79.28;95950.81;4927973;28;20129;-67
2022/05/04 01:19:04;;;;;;;4.53;3.55;;;14.10;75.00;;;12.82;79.07;95946.56;4945728;28;20035;-66
2022/05/04 01:21:30;;;;;;;4.95;3.45;;;14.10;75.20;;;12.80;79.60;95948.59;4931637;28;20114;-66
2022/05/04 01:23:57;;;;;;;5.68;3.35;;;14.00;75.20;;;12.81;79.02;95942.28;4929153;28;20047;-66
2022/05/04 01:26:23;;;;;;;6.53;3.92;;;14.10;75.30;;;12.83;79.40;95944.72;4943604;28;20030;-66
2022/05/04 01:28:48;;;;;;;5.00;3.70;;;14.00;75.30;;;12.83;79.21;95948.16;4894384;28;20503;-66
2022/05/04 01:31:14;;;;;;;4.72;3.55;;;14.10;75.20;;;12.83;79.54;95945.53;4972078;23;20487;-64
2022/05/04 01:33:40;;;;;;;4.95;3.58;;;14.10;75.10;;;12.84;79.17;95949.78;4963291;28;20066;-64
2022/05/04 01:36:07;;;;;;;4.68;3.70;;;14.10;75.00;;;12.85;79.23;95950.59;4964453;28;20066;-64
2022/05/04 01:38:33;;;;;;;5.88;3.90;;;14.10;75.00;;;12.83;79.22;95948.16;4945412;28;20495;-64
2022/05/04 01:40:59;;;;;;;4.53;3.45;;;14.10;75.20;;;12.82;79.60;95949.19;4953737;28;20043;-63
2022/05/04 01:43:25;;;;;;;5.30;3.75;;;14.00;75.30;;;12.74;79.53;95938.88;4937987;28;20042;-63
2022/05/04 01:45:51;;;;;;;5.20;3.95;;;13.90;75.50;;;12.69;79.91;95946.59;4948928;28;20431;-63
2022/05/04 01:48:16;;;;;;;7.10;4.50;;;13.80;75.70;;;12.67;80.27;95945.97;4961404;28;20350;-63
2022/05/04 01:50:42;;;;;;;6.20;4.32;;;13.90;75.90;;;12.62;79.50;95940.50;4947634;28;22870;-62
2022/05/04 01:53:08;;;;;;;5.55;4.70;;;13.70;76.20;;;12.56;80.57;95946.59;4948002;28;20078;-62
2022/05/04 01:55:35;;;;;;;4.57;4.03;;;13.70;76.60;;;12.52;80.66;95945.38;4960069;28;20042;-62
2022/05/04 01:58:02;;;;;;;6.20;4.15;;;13.70;76.60;;;12.53;80.61;95953.09;4962588;28;20043;-62
2022/05/04 02:00:27;;;;;;;5.35;4.80;;;13.70;76.30;;;12.48;81.11;95944.19;4947224;28;20039;-62
2022/05/04 02:02:54;;;;;;;5.40;4.60;;;13.60;76.50;;;12.46;80.63;95940.94;4949217;28;20046;-62
2022/05/04 02:05:20;;;;;;;6.20;4.55;;;13.60;76.30;;;12.48;80.59;95946.81;4921834;29;20044;-62
2022/05/04 02:07:46;;;;;;;6.35;4.60;;;13.70;76.10;;;12.45;80.50;95941.94;4953458;28;20036;-62
2022/05/04 02:10:12;;;;;;;4.85;4.28;;;13.70;76.00;;;12.48;80.82;95944.19;4929511;28;20046;-62
2022/05/04 02:12:38;;;;;;;4.85;4.25;;;13.70;76.10;;;12.48;81.12;95945.00;4949083;28;20043;-62
2022/05/04 02:15:08;;;;;;;9.40;4.20;;;13.80;76.10;;;12.47;81.22;95937.28;4937018;28;20122;-62
2022/05/04 02:17:34;;;;;;;4.47;4.05;;;13.70;76.20;;;12.46;80.92;95933.84;4933253;28;20054;-62
2022/05/04 02:20:00;;;;;;;4.95;4.35;;;13.70;76.20;;;12.44;80.82;95932.38;4949303;28;20464;-62
2022/05/04 02:22:26;;;;;;;5.13;4.53;;;13.70;76.40;;;12.42;80.98;95934.41;4948341;28;20043;-62
2022/05/04 02:24:52;;;;;;;5.15;4.65;;;13.60;76.50;;;12.41;81.39;95930.16;4937498;28;20047;-62
2022/05/04 02:27:17;;;;;;;5.50;4.45;;;13.60;76.60;;;12.38;81.06;95930.56;4952280;28;20514;-62
2022/05/04 02:29:43;;;;;;;5.95;5.00;;;13.60;76.80;;;12.37;81.50;95926.31;4928359;28;20155;-62
2022/05/04 02:32:09;;;;;;;8.75;4.75;;;13.60;76.70;;;12.36;81.80;95924.69;4951915;28;20130;-62
2022/05/04 02:37:54;;;;;;;5.53;4.45;;;13.60;76.50;;;12.37;80.67;95936.88;4932827;28;20042;-62
2022/05/04 02:40:26;;;;;;;6.78;5.13;;;13.60;76.60;;;12.36;81.81;95937.88;4974334;28;20096;-62
2022/05/04 02:42:52;;;;;;;8.25;5.13;;;13.60;76.80;;;12.38;81.22;95938.50;4939057;28;20050;-64
2022/05/04 02:45:18;;;;;;;6.13;4.60;;;13.60;76.80;;;12.40;82.17;95932.00;4953770;28;20078;-64
2022/05/04 02:47:44;;;;;;;5.22;4.63;;;13.70;77.00;;;12.44;82.29;95932.38;4925316;29;20594;-64
2022/05/04 02:50:10;;;;;;;6.68;5.22;;;13.80;76.70;;;12.46;82.01;95933.84;4933796;28;20044;-64
2022/05/04 02:52:36;;;;;;;6.13;5.35;;;13.80;76.70;;;12.48;81.75;95936.25;4923821;28;20463;-64
2022/05/04 02:55:02;;;;;;;8.65;6.70;;;13.80;76.60;;;12.50;82.29;95937.69;4953553;28;20499;-64
2022/05/04 02:57:28;;;;;;;9.15;7.45;;;13.80;76.60;;;12.54;82.43;95936.25;4948397;28;20038;-64
2022/05/04 02:59:54;;;;;;;9.35;8.20;;;13.90;76.60;;;12.58;82.22;95936.66;4948085;28;20036;-64
2022/05/04 03:02:28;;;;;;;6.63;5.43;;;13.90;76.60;;;12.63;82.49;95942.13;4928346;28;20377;-65
2022/05/04 03:04:59;;;;;;;8.30;5.28;;;14.00;76.30;;;12.61;82.40;95930.94;4977111;28;20058;-64
2022/05/04 03:07:26;;;;;;;6.53;5.18;;;13.90;76.30;;;12.58;82.06;95929.53;4941371;28;20034;-64
2022/05/04 03:09:55;;;;;;;7.60;5.35;;;13.90;76.30;;;12.55;82.43;95929.16;4929318;28;20137;-64
2022/05/04 03:12:21;;;;;;;6.68;5.40;;;13.80;76.60;;;12.54;81.94;95924.88;4950198;28;20126;-62
2022/05/04 03:14:47;;;;;;;11.45;8.68;;;13.80;76.50;;;12.53;82.37;95929.34;4951211;28;20085;-62
2022/05/04 03:17:13;;;;;;;5.75;5.15;;;13.80;76.50;;;12.53;82.58;95926.72;4959898;28;20035;-62
2022/05/04 03:19:38;;;;;;;6.68;5.40;;;13.90;76.50;;;12.55;82.37;95926.50;4918786;28;20031;-62
2022/05/04 03:22:05;;;;;;;9.85;4.97;;;13.90;76.50;;;12.53;82.02;95925.91;4931289;28;20117;-62
2022/05/04 03:24:31;;;;;;;6.28;5.53;;;13.80;76.60;;;12.51;82.67;95928.75;4948038;28;20035;-62
2022/05/04 03:26:57;;;;;;;5.43;4.93;;;13.80;76.40;;;12.47;82.72;95932.00;4937232;28;20084;-62
2022/05/04 03:29:23;;;;;;;5.78;5.18;;;13.70;76.70;;;12.46;82.19;95927.75;4966819;28;20502;-62
2022/05/04 03:31:48;;;;;;;7.85;6.07;;;13.70;76.80;;;12.43;82.53;95930.75;4974977;28;20074;-62
2022/05/04 03:34:14;;;;;;;6.55;5.90;;;13.70;76.90;;;12.43;82.54;95925.50;4966995;28;20085;-62
2022/05/04 03:36:40;;;;;;;6.22;5.65;;;13.70;76.90;;;12.42;83.00;95927.31;4965416;28;20038;-62
2022/05/04 03:39:06;;;;;;;6.90;5.95;;;13.80;77.00;;;12.42;82.79;95927.31;4953707;28;20037;-62
2022/05/04 03:41:32;;;;;;;7.97;7.18;;;13.70;76.90;;;12.42;82.71;95931.78;4946607;28;20543;-62
2022/05/04 03:43:58;;;;;;;8.13;7.28;;;13.80;76.90;;;12.44;82.81;95927.13;4938426;28;20051;-62
2022/05/04 03:46:25;;;;;;;6.40;5.72;;;13.80;77.10;;;12.44;83.22;95930.56;4932856;28;20098;-62
2022/05/04 03:48:54;;;;;;;5.68;5.03;;;13.70;77.30;;;12.44;83.92;95929.75;4951808;28;20542;-62
2022/05/04 03:51:20;;;;;;;6.63;5.65;;;13.80;77.00;;;12.44;83.49;95927.13;4946041;28;20051;-62
2022/05/04 03:53:50;;;;;;;7.07;6.15;;;13.80;77.10;;;12.42;83.80;95934.41;4930906;29;20043;-62
2022/05/04 03:56:16;;;;;;;7.40;5.75;;;13.70;77.20;;;12.39;82.91;95938.28;4945828;28;20129;-62
2022/05/04 03:58:42;;;;;;;6.68;5.80;;;13.70;77.20;;;12.36;83.26;95937.88;4947256;28;20559;-62
2022/05/04 04:01:08;;;;;;;6.55;5.82;;;13.70;77.40;;;12.36;83.75;95945.78;4921760;28;20046;-62
2022/05/04 04:03:34;;;;;;;6.97;6.00;;;13.70;77.40;;;12.35;83.92;95939.72;4966082;28;20564;-63
2022/05/04 04:06:00;;;;;;;6.95;5.65;;;13.70;77.60;;;12.37;84.09;95936.88;4975977;28;20046;-62
2022/05/04 04:08:26;;;;;;;6.70;5.00;;;13.70;77.50;;;12.39;83.96;95929.56;4947947;28;20114;-62
2022/05/04 04:10:52;;;;;;;6.63;5.97;;;13.70;77.40;;;12.38;83.87;95938.50;4962465;28;20044;-62
2022/05/04 04:13:18;;;;;;;6.53;5.85;;;13.70;77.30;;;12.40;83.99;95941.72;4959345;28;20162;-63
2022/05/04 04:15:44;;;;;;;8.30;6.50;;;13.80;77.10;;;12.40;83.81;95944.38;4944823;28;20062;-62
2022/05/04 04:18:10;;;;;;;12.05;8.32;;;13.80;76.90;;;12.39;83.42;95942.75;4961433;28;20166;-62
2022/05/04 04:23:21;;;;;;;10.80;8.02;;;13.70;77.00;;;12.34;83.53;95939.91;4955351;28;20545;-62
2022/05/04 04:25:46;;;;;;;11.35;8.18;;;13.70;77.10;;;12.35;83.41;95944.19;4946864;28;20043;-62
2022/05/04 04:28:12;;;;;;;12.00;8.77;;;13.70;77.10;;;12.35;83.89;95950.25;4958198;28;20527;-63
2022/05/04 04:30:38;;;;;;;12.90;8.88;;;13.80;77.00;;;12.36;83.83;95945.78;4929075;28;20503;-63
2022/05/04 04:33:08;;;;;;;14.13;8.93;;;13.80;77.00;;;12.37;84.13;95947.41;4939679;28;20137;-63
2022/05/04 04:35:34;;;;;;;14.20;8.80;;;13.80;77.10;;;12.38;83.82;95943.75;4946816;28;20533;-63
2022/05/04 04:38:00;;;;;;;10.30;8.43;;;13.80;76.90;;;12.37;84.14;95945.59;4959492;28;20047;-63
2022/05/04 04:40:26;;;;;;;13.18;9.07;;;13.80;76.80;;;12.39;84.21;95951.47;4942938;28;20042;-63
2022/05/04 04:42:52;;;;;;;9.38;7.95;;;13.90;76.80;;;12.40;83.86;95953.09;4917914;28;20157;-63
2022/05/04 04:45:18;;;;;;;9.55;5.90;;;13.90;76.70;;;12.41;83.64;95956.53;4944977;28;20050;-63
2022/05/04 04:47:47;;;;;;;7.43;6.28;;;13.90;76.40;;;12.43;84.20;95957.97;4939914;28;20403;-63
2022/05/04 04:50:13;;;;;;;13.88;11.40;;;13.90;76.50;;;12.46;83.75;95956.75;4944944;28;20035;-63
2022/05/04 04:52:39;;;;;;;11.02;8.70;;;14.00;76.40;;;12.50;83.22;95963.25;4961439;28;20031;-62
2022/05/04 04:55:06;;;;;;;7.15;6.35;;;14.10;76.40;;;12.53;83.74;95962.84;4938376;28;20039;-63
2022/05/04 04:57:33;;;;;;;8.15;6.00;;;14.10;75.90;;;12.55;82.82;95968.72;4947890;28;20058;-62
2022/05/04 04:59:59;;;;;;;7.65;6.25;;;14.10;75.80;;;12.60;83.74;95963.63;4964872;28;20049;-63
2022/05/04 05:02:25;;;;;;;7.00;5.63;;;14.10;75.50;;;12.60;83.25;95958.34;4962165;28;20113;-63
2022/05/04 05:04:51;;;;;;;6.75;5.95;;;14.10;75.60;;;12.64;83.13;95964.84;4949248;28;20063;-63
2022/05/04 05:07:17;;;;;;;6.55;5.90;;;14.30;75.30;;;12.69;83.30;95962.44;4936780;28;20268;-63
2022/05/04 05:09:43;;;;;;;8.32;5.85;;;14.30;75.00;;;12.75;83.18;95971.34;4947586;28;20058;-63
2022/05/04 05:12:09;;;;;;;6.03;5.43;;;14.40;75.20;;;12.74;83.44;95959.97;4949993;28;20065;-63
2022/05/04 05:17:19;;;;;;;6.07;5.47;;;14.60;74.50;;;12.89;83.01;95972.91;4952177;28;20050;-63
2022/05/04 05:19:45;;;;;;;7.18;5.68;;;14.50;74.60;;;12.92;83.06;95966.44;4961275;28;20122;-63
2022/05/04 05:22:11;;;;;;;6.38;5.57;;;14.50;74.50;;;12.94;82.11;95965.22;4961432;28;20039;-63
2022/05/04 05:24:36;;;;;;;7.75;5.57;;;14.50;74.40;;;12.97;82.18;95974.56;4959790;28;20525;-63
2022/05/04 05:27:02;;;;;;;6.47;5.75;;;14.60;74.30;;;12.97;81.50;95964.81;4946129;28;20031;-63
2022/05/04 05:29:28;;;;;;;6.70;5.85;;;14.50;73.80;;;12.93;81.74;95963.59;4963574;28;20035;-63
2022/05/04 05:31:54;;;;;;;7.20;6.00;;;14.40;74.20;;;12.86;82.15;95968.88;4941526;28;20230;-63
2022/05/04 05:34:20;;;;;;;8.27;6.10;;;14.30;74.60;;;12.86;81.44;95968.06;4943883;28;20050;-63
2022/05/04 05:36:47;;;;;;;7.65;6.05;;;14.30;74.70;;;12.84;82.22;95970.09;4947896;28;20046;-63
2022/05/04 05:39:12;;;;;;;6.43;5.82;;;14.40;74.70;;;12.83;81.83;95973.75;4963859;28;20050;-63
2022/05/04 05:41:38;;;;;;;8.68;5.93;;;14.30;74.90;;;12.82;82.35;95970.31;4955933;28;20066;-64
2022/05/04 05:44:04;;;;;;;7.57;5.75;;;14.40;74.90;;;12.85;82.23;95979.63;4945353;28;20130;-64
2022/05/04 05:46:30;;;;;;;6.32;5.72;;;14.50;74.80;;;12.85;82.17;95972.53;4943153;28;20041;-64
2022/05/04 05:48:56;;;;;;;7.20;6.40;;;14.60;74.60;;;12.89;82.59;95975.56;4941935;28;20455;-64
2022/05/04 05:51:21;;;;;;;7.20;6.05;;;14.60;74.50;;;12.92;82.62;95975.19;4948308;28;20137;-65
2022/05/04 05:53:47;;;;;;;8.30;6.53;;;14.60;74.50;;;12.95;82.24;95982.69;4952607;28;20133;-64
2022/05/04 05:56:13;;;;;;;7.55;6.32;;;14.60;74.20;;;12.98;82.17;95976.19;4950510;28;20027;-64
2022/05/04 05:58:39;;;;;;;9.23;5.85;;;14.60;73.90;;;13.02;81.67;95982.66;4946576;28;20113;-65
2022/05/04 06:01:04;;;;;;;7.15;6.45;;;14.70;73.90;;;13.02;81.48;95977.38;4980411;28;20062;-64
2022/05/04 06:03:30;;;;;;;7.13;6.43;;;14.70;73.80;;;13.05;81.57;95990.97;4938586;28;20193;-65
2022/05/04 06:05:56;;;;;;;7.85;6.30;;;14.80;73.80;;;13.11;82.44;95986.69;4950870;28;20181;-65
2022/05/04 06:08:22;;;;;;;10.07;6.30;;;14.90;73.50;;;13.17;81.38;95988.53;4941161;28;20121;-64
2022/05/04 06:10:47;;;;;;;6.88;5.97;;;15.00;73.20;;;13.23;81.95;95990.34;4948072;28;20138;-64
2022/05/04 06:13:13;;;;;;;8.35;6.07;;;15.00;73.00;;;13.28;81.97;95987.91;4964015;28;20135;-64
2022/05/04 06:15:39;;;;;;;6.57;5.97;;;15.10;72.70;;;13.40;81.21;95990.72;4943936;28;20151;-64
2022/05/04 06:18:05;;;;;;;6.55;5.80;;;15.40;71.70;;;13.48;81.56;95988.63;4960788;28;20138;-64
2022/05/04 06:20:31;;;;;;;7.43;5.25;;;15.50;71.60;;;13.56;80.91;95994.69;4929480;28;20138;-64
2022/05/04 06:22:57;;;;;;;5.22;4.55;;;15.40;70.20;;;13.65;79.47;95993.44;4965232;28;20050;-64
2022/05/04 06:25:23;;;;;;;8.43;5.55;;;15.60;70.30;;;13.68;79.23;95990.38;4945240;28;20031;-65
2022/05/04 06:27:49;;;;;;;6.57;5.05;;;15.50;70.10;;;13.75;78.33;95993.78;4944583;28;20035;-65
2022/05/04 06:35:43;;;;;;;5.18;4.57;;;15.60;69.80;;;13.90;78.37;95999.63;4964818;28;20090;-65
2022/05/04 06:38:10;;;;;;;5.38;4.88;;;15.70;69.90;;;13.96;78.12;95997.97;4965501;28;20023;-64
2022/05/04 06:40:37;;;;;;;5.03;4.53;;;15.80;69.40;;;14.03;78.88;95996.91;4962680;28;20031;-65
2022/05/04 06:43:03;;;;;;;7.95;5.15;;;16.00;69.10;;;14.10;78.32;95996.88;4965631;28;20151;-65
2022/05/04 06:45:29;;;;;;;5.82;4.63;;;16.10;69.20;;;14.16;77.53;95995.19;4966419;28;20051;-65
2022/05/04 06:47:55;;;;;;;4.72;4.25;;;16.10;69.00;;;14.21;77.91;96003.28;4967761;28;20035;-65
2022/05/04 06:50:21;;;;;;;7.75;4.60;;;16.10;68.20;;;14.24;77.08;96003.69;4980424;28;20030;-66
2022/05/04 06:52:46;;;;;;;4.78;4.28;;;16.10;67.70;;;14.24;76.30;96000.22;4968223;28;20042;-64
2022/05/04 06:55:12;;;;;;;5.35;4.55;;;16.10;68.30;;;14.27;77.27;96003.28;4949025;28;20135;-64
2022/05/04 06:57:38;;;;;;;5.95;4.20;;;16.10;68.60;;;14.33;76.56;96001.59;4966579;28;20445;-65
2022/05/04 07:00:05;;;;;;;5.03;4.53;;;16.20;67.90;;;14.39;76.35;96000.72;4962266;28;20509;-64
2022/05/04 07:02:33;;;;;;;5.38;4.88;;;16.40;67.70;;;14.40;75.73;96005.00;4950935;28;20654;-64
2022/05/04 07:05:02;;;;;;;6.68;4.97;;;16.40;67.60;;;14.41;76.53;96001.31;4936019;28;20062;-65
2022/05/04 07:07:28;;;;;;;5.93;4.93;;;16.50;67.70;;;14.48;76.43;96004.75;4967641;28;20431;-65
2022/05/04 07:09:54;;;;;;;8.93;5.03;;;16.60;67.40;;;14.63;76.86;96007.09;4966797;28;20126;-64
2022/05/04 07:12:20;;;;;;;5.75;5.13;;;17.20;66.40;;;14.86;76.14;96006.50;4918935;28;20058;-64
2022/05/04 07:14:46;;;;;;;6.30;4.93;;;17.70;64.00;;;15.05;75.90;96013.44;4949220;28;20038;-65
2022/05/04 07:17:12;;;;;;;7.55;4.20;;;17.70;63.70;;;15.17;75.29;96009.06;4950739;28;20444;-65
2022/05/04 07:19:38;;;;;;;6.75;6.03;;;17.70;63.60;;;15.31;74.55;96010.50;4956693;28;20157;-66
2022/05/04 07:22:04;;;;;;;5.35;3.85;;;17.80;63.90;;;15.45;73.92;96015.69;4972293;28;20078;-65
2022/05/04 07:24:29;;;;;;;8.90;7.60;;;17.70;62.70;;;15.53;74.13;96002.13;4966057;28;20030;-65
2022/05/04 07:26:55;;;;;;;5.47;4.28;;;17.90;63.00;;;15.66;73.18;96002.00;4952319;28;20118;-65
2022/05/04 07:29:21;;;;;;;4.63;3.58;;;18.20;62.00;;;15.73;72.02;95997.41;4947523;28;20522;-65
2022/05/04 07:31:47;;;;;;;4.30;3.63;;;18.00;60.90;;;15.78;71.31;96004.69;4939685;28;20071;-64
2022/05/04 07:34:17;;;;;;;5.88;3.85;;;18.00;61.30;;;15.88;71.03;96005.81;4960424;23;20121;-64
2022/05/04 07:36:44;;;;;;;4.55;3.20;;;18.10;61.60;;;16.01;71.20;96004.00;4968419;28;20323;-63
2022/05/04 07:42:21;;;;;;;5.28;3.15;;;18.40;60.00;;;16.22;70.09;95995.53;4953978;28;20030;-61
2022/05/04 07:44:40;;;;;;;4.15;2.90;;;20.30;54.60;;;16.96;69.27;95996.00;4966477;28;20502;-63
2022/05/04 07:47:06;;;;;;;3.35;2.75;;;20.60;53.60;;;17.22;68.39;95994.75;4966747;28;20141;-64
2022/05/04 07:49:32;;;;;;;3.25;2.70;;;20.60;52.80;;;17.49;66.86;96001.16;4950895;28;20114;-64
2022/05/04 07:51:58;;;;;;;3.30;2.58;;;21.10;52.40;;;17.75;66.29;95995.34;4934477;28;20054;-63
2022/05/04 07:54:24;;;;;;;3.33;2.67;;;21.10;52.20;;;18.00;65.77;95996.88;4964134;28;20077;-64
2022/05/04 07:56:49;;;;;;;3.55;2.70;;;21.10;50.60;;;18.11;63.32;95990.69;4948878;28;20070;-62
2022/05/04 07:59:15;;;;;;;4.03;2.85;;;21.20;49.80;;;18.29;63.14;95990.47;4965998;28;20030;-65
2022/05/04 08:04:25;;;;;;;5.15;2.63;;;21.10;49.60;;;18.52;61.44;95999.38;4952045;28;20053;-64
2022/05/04 08:06:51;;;;;;;4.88;2.70;;;21.30;50.00;;;18.66;62.15;96006.03;4933067;28;20047;-63
2022/05/04 08:09:17;;;;;;;4.72;2.30;;;21.40;50.50;;;18.80;60.75;96006.53;4965613;28;20510;-65
2022/05/04 08:11:43;;;;;;;4.00;2.42;;;21.60;50.00;;;18.92;60.48;96005.38;4966105;28;20043;-63
2022/05/04 08:14:10;;;;;;;2.88;2.38;;;21.80;49.60;;;19.12;60.59;96009.41;4950125;28;20046;-62
2022/05/04 08:16:36;;;;;;;4.53;3.35;;;22.10;48.40;;;19.30;60.35;96019.00;4965355;28;20416;-65
2022/05/04 08:19:03;;;;;;;7.22;2.47;;;22.30;47.90;;;19.46;58.22;96016.31;4950971;28;20039;-63
2022/05/04 08:21:29;;;;;;;4.88;3.90;;;22.80;45.40;;;19.75;59.04;96008.97;4949210;28;20439;-64
2022/05/04 08:23:55;;;;;;;6.95;5.90;;;23.40;45.50;;;20.05;56.92;96013.84;4965691;28;20035;-63
2022/05/04 08:26:21;;;;;;;2.92;2.40;;;23.60;43.10;;;20.25;55.32;96013.25;4964704;28;20049;-65
2022/05/04 08:28:46;;;;;;;4.22;2.25;;;23.60;42.30;;;20.47;54.66;95999.84;4950034;28;20035;-64
2022/05/04 08:31:12;;;;;;;3.05;1.67;;;23.80;42.10;;;20.66;54.53;96002.97;4947868;28;20129;-66
2022/05/04 08:33:38;;;;;;;4.03;1.95;;;24.10;42.00;;;20.86;54.71;96002.34;4965117;28;20466;-64
2022/05/04 08:36:04;;;;;;;3.15;1.90;;;24.30;42.40;;;21.06;52.94;96002.47;4965097;28;20133;-63
2022/05/04 08:38:30;;;;;;;2.83;1.70;;;24.50;40.50;;;21.33;51.68;96003.22;4932985;28;20578;-63
2022/05/04 08:40:55;;;;;;;2.47;1.45;;;25.30;38.10;;;21.72;51.16;95997.50;4965709;28;20114;-63
2022/05/04 08:43:25;;;;;;;4.13;1.70;;;26.00;37.20;;;22.12;49.38;95998.75;4942907;28;20475;-66
2022/05/04 08:45:54;;;;;;;2.70;1.50;;;26.50;35.00;;;22.52;47.72;95998.00;4948901;28;20530;-65
2022/05/04 08:48:20;;;;;;;2.20;1.52;;;27.00;34.90;;;22.87;47.51;95991.91;4949058;28;20038;-65
2022/05/04 08:50:46;;;;;;;2.65;1.45;;;27.10;34.60;;;23.07;47.41;95997.22;4949813;28;20038;-62
2022/05/04 08:53:12;;;;;;;2.80;1.50;;;27.20;34.50;;;23.46;47.03;95999.31;4943411;28;20043;-63
2022/05/04 08:55:39;;;;;;;2.63;1.80;;;27.80;34.20;;;23.79;45.59;95990.63;4948330;28;20049;-64
2022/05/04 08:58:06;;;;;;;2.47;1.50;;;28.20;32.70;;;24.07;44.59;95991.84;4949364;28;20494;-65
2022/05/04 09:00:32;;;;;;;2.42;1.50;;;28.50;32.10;;;24.28;44.65;95997.94;4948381;28;20047;-64
2022/05/04 09:02:58;;;;;;;2.25;1.40;;;28.50;33.40;;;24.57;42.51;95981.88;4964723;28;20043;-64
2022/05/04 09:05:25;;;;;;;2.17;1.70;;;28.80;31.20;;;24.82;42.79;95975.50;4948624;28;20387;-64
2022/05/04 09:07:56;;;;;;;2.03;1.80;;;29.00;32.20;;;24.94;40.63;95984.00;4949069;28;20039;-65
2022/05/04 09:10:27;;;;;;;2.60;1.75;;;28.60;32.00;;;25.00;41.32;95977.50;4964747;28;20111;-63
2022/05/04 09:12:59;;;;;;;3.55;1.80;;;28.60;33.30;;;25.12;41.66;95971.78;4945377;28;20059;-65
2022/05/04 09:15:35;;;;;;;2.65;1.38;;;28.70;32.50;;;25.12;38.95;95979.00;4926455;28;20427;-65
2022/05/04 09:18:08;;;;;;;4.85;1.48;;;28.20;32.30;;;25.08;39.13;95980.66;4945688;28;20082;-65
2022/05/04 09:20:48;;;;;;;4.35;1.77;;;28.60;31.40;;;25.03;38.17;95976.94;4945097;28;20173;-65
2022/05/04 09:23:17;;;;;;;;;;;28.00;31.70;;;24.78;38.28;95968.28;4943535;28;20135;-64
2022/05/04 09:25:43;;;;;;;5.45;1.88;;;27.30;32.30;;;24.77;41.36;95972.03;4959351;28;19997;-65
2022/05/04 09:28:11;;;;;;;3.72;1.92;;;28.20;32.50;;;24.87;40.02;95966.56;4945474;28;20041;-63
2022/05/04 09:30:47;;;;;;;2.05;1.45;;;28.60;31.00;;;25.03;38.94;95968.88;4947883;28;20039;-64
2022/05/04 09:33:17;;;;;;;1.95;1.38;;;28.60;29.90;;;24.97;37.49;95964.59;4948571;28;20085;-63
2022/05/04 09:35:42;;;;;;;;;;;28.90;30.10;;;25.20;36.67;95962.25;4948339;28;20031;-64
2022/05/04 09:46:49;;;;;;;1.20;0.80;;;30.90;27.40;;;26.28;36.52;95958.00;4950416;28;20852;-65
2022/05/04 09:49:27;;;;;;;4.20;0.80;;;30.60;25.60;;;26.41;33.13;95956.47;4964875;28;20121;-64
2022/05/04 09:51:53;;;;;;;1.20;0.88;;;30.60;25.30;;;26.29;35.69;95953.41;4945152;28;20051;-63
2022/05/04 09:54:27;;;;;;;14.30;11.88;;;29.90;27.20;;;26.30;33.95;95952.31;4943064;28;20359;-63
2022/05/04 09:56:55;;;;;;;2.35;1.13;;;30.40;27.40;;;26.52;35.45;95957.94;4948023;28;20747;-64
2022/05/04 09:59:26;;;;;;;1.65;0.90;;;30.60;26.90;;;26.52;35.26;95955.25;4932885;28;20422;-63
2022/05/04 10:01:53;;;;;;;1.25;1.00;;;30.10;26.20;;;26.48;34.98;95943.41;4948786;28;20134;-64
2022/05/04 10:04:20;;;;;;;1.83;1.17;;;29.70;27.40;;;26.29;35.39;95945.31;4947860;28;20126;-62
2022/05/04 10:06:54;;;;;;;2.65;1.48;;;28.90;29.30;;;25.99;34.14;95944.63;4963406;28;20031;-62
2022/05/04 10:09:21;;;;;;;3.42;1.10;;;28.40;29.80;;;25.67;35.57;95947.19;4948672;28;20050;-64
2022/05/04 10:11:53;;;;;;;5.82;4.30;;;27.70;30.80;;;25.21;35.47;95951.22;4963432;28;20131;-64
2022/05/04 10:14:19;;;;;;;6.80;4.80;;;26.70;30.70;;;24.72;35.61;95951.38;4944842;28;20094;-62
2022/05/04 10:16:52;;;;;;;3.45;2.08;;;26.10;33.50;;;24.26;37.53;95957.06;4945653;28;20030;-63
2022/05/04 10:19:50;;;;;;;2.42;1.50;;;25.60;35.90;;;23.67;38.04;95960.59;4950779;28;20411;-63
2022/05/04 10:22:31;;;;;;;1.80;1.40;;;25.00;37.10;;;23.18;42.05;95963.13;4932246;28;20511;-62
2022/05/04 10:24:59;;;;;;;3.05;1.83;;;24.60;40.40;;;22.78;42.87;95956.72;4947570;28;20032;-63
2022/05/04 10:27:28;;;;;;;4.85;1.80;;;24.20;42.90;;;22.47;44.26;95958.63;4954284;28;20042;-64
2022/05/04 10:32:49;;;;;;;3.17;1.90;;;23.90;44.70;;;21.91;45.27;95961.16;4953967;28;20045;-61
2022/05/04 10:35:27;;;;;;;2.58;1.23;;;23.50;43.10;;;21.73;42.90;95947.44;4950458;28;20038;-64
2022/05/04 10:37:59;;;;;;;2.35;1.38;;;23.50;40.00;;;21.50;44.15;95946.00;4951539;28;20130;-63
2022/05/04 10:40:55;;;;;;;2.83;1.60;;;23.20;40.80;;;21.25;48.33;95947.50;4967889;28;20098;-62
2022/05/04 10:43:45;;;;;;;2.53;1.60;;;22.90;46.30;;;21.03;48.49;95944.13;4921606;29;20035;-64
2022/05/04 10:46:19;;;;;;;;;;;22.60;45.70;;;20.83;47.55;95934.13;4948290;28;20035;-64
2022/05/04 10:48:50;;;;;;;6.32;3.58;;;22.40;44.90;;;20.68;48.08;95934.84;4960355;28;19921;-64
2022/05/04 10:51:18;;;;;;;7.45;6.63;;;22.20;45.60;;;20.53;48.47;95939.25;4948455;28;20036;-64